Time;durP1;ratioP1;P1;durP2;ratioP2;P2;SDS_P1;SDS_P2;PMS_P1;PMS_P2;Temp;Humidity;BMP_temperature;BMP_pressure;BME280_temperature;BME280_humidity;BME280_pressure;Samples;Min_cycle;Max_cycle;Signal;HPM_P1;HPM_P2
2022/07/15 00:00:22;;;;;;;;;;;;;;;;;;1044666;28;3925;-51
2022/07/15 00:01:07;;;;;;;;;;;;;;;;;;1045402;28;4246;-51
2022/07/15 00:01:37;;;;;;;;;;;;;;;;;;1044830;28;1679;-51
2022/07/15 00:02:08;;;;;;;;;;;;;;;;;;1044519;28;3894;-52
2022/07/15 00:02:38;;;;;;;;;;;;;;;;;;1044657;28;1893;-53
2022/07/15 00:03:09;;;;;;;;;;;;;;;;;;1044473;28;3978;-52
2022/07/15 00:03:39;;;;;;;;;;;;;;;;;;1044380;28;2053;-54
2022/07/15 00:04:10;;;;;;;;;;;;;;;;;;1045347;28;4076;-52
2022/07/15 00:04:40;;;;;;;;;;;;;;;;;;1045019;28;1670;-50
2022/07/15 00:05:23;;;;;;;;;;;;;;;;;;1043750;28;4400;-53
2022/07/15 00:06:01;;;;;;;;;;;;;;;;;;1045263;28;3805;-53
2022/07/15 00:06:31;;;;;;;;;;;;;;;;;;1046259;28;1626;-50
2022/07/15 00:07:02;;;;;;;;;;;;;;;;;;1039988;28;4280;-48
2022/07/15 00:07:32;;;;;;;;;;;;;;;;;;1040723;28;1296;-51
2022/07/15 00:08:02;;;;;;;;;;;;;;;;;;1040393;28;4078;-54
2022/07/15 00:08:32;;;;;;;;;;;;;;;;;;1039910;28;1677;-50
2022/07/15 00:09:03;;;;;;;;;;;;;;;;;;1045268;28;3821;-53
2022/07/15 00:10:23;;;;;;;;;;;;;;;;;;1044355;28;3944;-55
2022/07/15 00:10:53;;;;;;;;;;;;;;;;;;1041539;28;1790;-50
2022/07/15 00:11:24;;;;;;;;;;;;;;;;;;1041306;28;3997;-52
2022/07/15 00:11:58;;;;;;;;;;;;;;;;;;1041535;28;1833;-51
2022/07/15 00:12:28;;;;;;;;;;;;;;;;;;1043063;28;4039;-56
2022/07/15 00:12:59;;;;;;;;;;;;;;;;;;1044343;28;3818;-51
2022/07/15 00:13:31;;;;;;;;;;;;;;;;;;1045186;28;1583;-53
2022/07/15 00:14:01;;;;;;;;;;;;;;;;;;1044318;28;4227;-49
2022/07/15 00:14:32;;;;;;;;;;;;;;;;;;1044751;28;2027;-54
2022/07/15 00:15:02;;;;;;;;;;;;;;;;;;1044094;28;3922;-48
2022/07/15 00:15:32;;;;;;;;;;;;;;;;;;1045515;28;1362;-52
2022/07/15 00:16:03;;;;;;;;;;;;;;;;;;1044468;28;3933;-50
2022/07/15 00:16:33;;;;;;;;;;;;;;;;;;1045148;28;1507;-51
2022/07/15 00:17:04;;;;;;;;;;;;;;;;;;1044267;28;3941;-54
2022/07/15 00:17:34;;;;;;;;;;;;;;;;;;1044310;28;1305;-50
2022/07/15 00:18:05;;;;;;;;;;;;;;;;;;1044995;28;3974;-50
2022/07/15 00:18:35;;;;;;;;;;;;;;;;;;1045181;28;1621;-53
2022/07/15 00:19:05;;;;;;;;;;;;;;;;;;1043952;28;4099;-51
2022/07/15 00:19:36;;;;;;;;;;;;;;;;;;1045268;28;1475;-51
2022/07/15 00:20:07;;;;;;;;;;;;;;;;;;1044061;28;4046;-49
2022/07/15 00:20:38;;;;;;;;;;;;;;;;;;1044352;28;1555;-50
2022/07/15 00:21:08;;;;;;;;;;;;;;;;;;1044083;28;3876;-51
2022/07/15 00:21:39;;;;;;;;;;;;;;;;;;1041627;28;1675;-50
2022/07/15 00:22:09;;;;;;;;;;;;;;;;;;1041506;28;4482;-48
2022/07/15 00:22:40;;;;;;;;;;;;;;;;;;1041354;28;1819;-50
2022/07/15 00:23:11;;;;;;;;;;;;;;;;;;1041450;28;3968;-52
2022/07/15 00:23:41;;;;;;;;;;;;;;;;;;1044886;28;1672;-52
2022/07/15 00:24:11;;;;;;;;;;;;;;;;;;1043279;28;4235;-49
2022/07/15 00:24:42;;;;;;;;;;;;;;;;;;1045056;28;1277;-51
2022/07/15 00:25:12;;;;;;;;;;;;;;;;;;1044704;28;4390;-51
2022/07/15 00:25:43;;;;;;;;;;;;;;;;;;1044989;28;1894;-53
2022/07/15 00:26:13;;;;;;;;;;;;;;;;;;1041053;28;4036;-48
2022/07/15 00:26:44;;;;;;;;;;;;;;;;;;1040560;28;1750;-52
2022/07/15 00:27:14;;;;;;;;;;;;;;;;;;1039844;28;4039;-52
2022/07/15 00:27:51;;;;;;;;;;;;;;;;;;1040651;28;1825;-53
2022/07/15 00:28:21;;;;;;;;;;;;;;;;;;1045253;28;3789;-53
2022/07/15 00:28:52;;;;;;;;;;;;;;;;;;1045793;28;1658;-50
2022/07/15 00:29:22;;;;;;;;;;;;;;;;;;1043663;28;3882;-48
2022/07/15 00:29:53;;;;;;;;;;;;;;;;;;1045229;28;1875;-50
2022/07/15 00:30:24;;;;;;;;;;;;;;;;;;1044506;28;4186;-51
2022/07/15 00:30:55;;;;;;;;;;;;;;;;;;1045480;28;1583;-53
2022/07/15 00:31:25;;;;;;;;;;;;;;;;;;1043869;28;3751;-50
2022/07/15 00:31:56;;;;;;;;;;;;;;;;;;1045569;28;1693;-51
2022/07/15 00:32:33;;;;;;;;;;;;;;;;;;1044144;28;3957;-51
2022/07/15 00:33:03;;;;;;;;;;;;;;;;;;1044379;28;4401;-50
2022/07/15 00:33:34;;;;;;;;;;;;;;;;;;1045201;28;1727;-52
2022/07/15 00:34:04;;;;;;;;;;;;;;;;;;1045368;28;3851;-54
2022/07/15 00:34:34;;;;;;;;;;;;;;;;;;1044250;28;1741;-47
2022/07/15 00:35:04;;;;;;;;;;;;;;;;;;1043977;28;3995;-52
2022/07/15 00:35:36;;;;;;;;;;;;;;;;;;1044430;28;2072;-48
2022/07/15 00:36:06;;;;;;;;;;;;;;;;;;1039533;28;4001;-54
2022/07/15 00:36:37;;;;;;;;;;;;;;;;;;1041198;28;1677;-49
2022/07/15 00:37:07;;;;;;;;;;;;;;;;;;1038893;28;4241;-52
2022/07/15 00:37:37;;;;;;;;;;;;;;;;;;1041011;28;1571;-54
2022/07/15 00:38:08;;;;;;;;;;;;;;;;;;1041584;28;3943;-52
2022/07/15 00:38:39;;;;;;;;;;;;;;;;;;1040941;28;2372;-52
2022/07/15 00:39:10;;;;;;;;;;;;;;;;;;1040194;28;4047;-50
2022/07/15 00:39:40;;;;;;;;;;;;;;;;;;1041373;28;1638;-54
2022/07/15 00:40:12;;;;;;;;;;;;;;;;;;1043700;28;4000;-50
2022/07/15 00:40:44;;;;;;;;;;;;;;;;;;1040358;28;1569;-55
2022/07/15 00:41:14;;;;;;;;;;;;;;;;;;1043836;28;3981;-52
2022/07/15 00:41:44;;;;;;;;;;;;;;;;;;1045520;28;1459;-52
2022/07/15 00:42:43;;;;;;;;;;;;;;;;;;1044763;28;3813;-53
2022/07/15 00:43:05;;;;;;;;;;;;;;;;;;1044601;28;3762;-53
2022/07/15 00:43:36;;;;;;;;;;;;;;;;;;1042527;28;1695;-55
2022/07/15 00:44:06;;;;;;;;;;;;;;;;;;1040447;28;4241;-52
2022/07/15 00:44:37;;;;;;;;;;;;;;;;;;1040911;28;1513;-52
2022/07/15 00:45:09;;;;;;;;;;;;;;;;;;1039388;28;3884;-54
2022/07/15 00:45:42;;;;;;;;;;;;;;;;;;1045946;28;1568;-51
2022/07/15 00:46:17;;;;;;;;;;;;;;;;;;1043564;28;3883;-52
2022/07/15 00:46:48;;;;;;;;;;;;;;;;;;1044745;28;1040;-55
2022/07/15 00:47:18;;;;;;;;;;;;;;;;;;1044439;28;3785;-52
2022/07/15 00:47:50;;;;;;;;;;;;;;;;;;1045358;28;1484;-51
2022/07/15 00:48:20;;;;;;;;;;;;;;;;;;1045463;28;5015;-50
2022/07/15 00:48:50;;;;;;;;;;;;;;;;;;1044396;28;1298;-51
2022/07/15 00:49:21;;;;;;;;;;;;;;;;;;1043330;28;4063;-50
2022/07/15 00:49:51;;;;;;;;;;;;;;;;;;1044357;28;1683;-53
2022/07/15 00:50:25;;;;;;;;;;;;;;;;;;1038852;28;3984;-51
2022/07/15 00:50:55;;;;;;;;;;;;;;;;;;1040977;28;1822;-51
2022/07/15 00:51:25;;;;;;;;;;;;;;;;;;1039704;28;4735;-51
2022/07/15 00:51:57;;;;;;;;;;;;;;;;;;1040804;28;1002;-53
2022/07/15 00:52:28;;;;;;;;;;;;;;;;;;1040061;28;5288;-53
2022/07/15 00:53:12;;;;;;;;;;;;;;;;;;1039426;28;3916;-54
2022/07/15 00:53:43;;;;;;;;;;;;;;;;;;1036071;28;1731;-53
2022/07/15 00:54:14;;;;;;;;;;;;;;;;;;1038317;28;3811;-52
2022/07/15 00:54:46;;;;;;;;;;;;;;;;;;1040659;28;3522;-53
2022/07/15 00:55:17;;;;;;;;;;;;;;;;;;1040241;28;3957;-52
2022/07/15 00:55:48;;;;;;;;;;;;;;;;;;1045460;28;1599;-50
2022/07/15 00:56:20;;;;;;;;;;;;;;;;;;1043794;28;4259;-52
2022/07/15 00:56:52;;;;;;;;;;;;;;;;;;1045502;28;1542;-52
2022/07/15 00:57:23;;;;;;;;;;;;;;;;;;1044203;28;3788;-49
2022/07/15 00:57:55;;;;;;;;;;;;;;;;;;1041870;28;1832;-51
2022/07/15 00:58:26;;;;;;;;;;;;;;;;;;1041638;28;3764;-54
2022/07/15 00:58:57;;;;;;;;;;;;;;;;;;1042116;28;1677;-53
2022/07/15 00:59:31;;;;;;;;;;;;;;;;;;1042245;28;3909;-52
2022/07/15 01:00:03;;;;;;;;;;;;;;;;;;1040395;28;4229;-52
2022/07/15 01:00:34;;;;;;;;;;;;;;;;;;1040300;28;1641;-51
2022/07/15 01:01:04;;;;;;;;;;;;;;;;;;1041207;28;4086;-50
2022/07/15 01:01:37;;;;;;;;;;;;;;;;;;1040898;28;1717;-49
2022/07/15 01:02:08;;;;;;;;;;;;;;;;;;1043429;28;3971;-54
2022/07/15 01:02:39;;;;;;;;;;;;;;;;;;1044439;28;1581;-50
2022/07/15 01:03:09;;;;;;;;;;;;;;;;;;1044391;28;4242;-54
2022/07/15 01:03:40;;;;;;;;;;;;;;;;;;1042444;28;1690;-51
2022/07/15 01:04:11;;;;;;;;;;;;;;;;;;1042237;28;3812;-54
2022/07/15 01:04:41;;;;;;;;;;;;;;;;;;1042431;28;1690;-51
2022/07/15 01:05:12;;;;;;;;;;;;;;;;;;1042167;28;4125;-50
2022/07/15 01:05:49;;;;;;;;;;;;;;;;;;1044200;28;1964;-48
2022/07/15 01:06:19;;;;;;;;;;;;;;;;;;1045904;28;4085;-51
2022/07/15 01:06:49;;;;;;;;;;;;;;;;;;1045475;28;1640;-54
2022/07/15 01:07:20;;;;;;;;;;;;;;;;;;1045684;28;3914;-52
2022/07/15 01:07:50;;;;;;;;;;;;;;;;;;1044829;28;1393;-51
2022/07/15 01:08:21;;;;;;;;;;;;;;;;;;1044746;28;3874;-51
2022/07/15 01:08:58;;;;;;;;;;;;;;;;;;1044694;28;3849;-52
2022/07/15 01:09:28;;;;;;;;;;;;;;;;;;1042931;28;1620;-52
2022/07/15 01:09:59;;;;;;;;;;;;;;;;;;1041871;28;3805;-55
2022/07/15 01:10:29;;;;;;;;;;;;;;;;;;1042546;28;1910;-51
2022/07/15 01:10:59;;;;;;;;;;;;;;;;;;1041673;28;3988;-50
2022/07/15 01:11:30;;;;;;;;;;;;;;;;;;1044759;28;1694;-51
2022/07/15 01:12:00;;;;;;;;;;;;;;;;;;1044075;28;3823;-51
2022/07/15 01:12:30;;;;;;;;;;;;;;;;;;1045101;28;1248;-50
2022/07/15 01:13:02;;;;;;;;;;;;;;;;;;1041311;28;3811;-53
2022/07/15 01:13:32;;;;;;;;;;;;;;;;;;1042349;28;1530;-50
2022/07/15 01:14:03;;;;;;;;;;;;;;;;;;1041099;28;3895;-54
2022/07/15 01:14:33;;;;;;;;;;;;;;;;;;1042763;28;1610;-51
2022/07/15 01:15:04;;;;;;;;;;;;;;;;;;1040100;28;4154;-55
2022/07/15 01:15:34;;;;;;;;;;;;;;;;;;1041928;28;1979;-52
2022/07/15 01:16:05;;;;;;;;;;;;;;;;;;1040545;28;3912;-51
2022/07/15 01:16:35;;;;;;;;;;;;;;;;;;1041178;28;1642;-55
2022/07/15 01:17:11;;;;;;;;;;;;;;;;;;1045144;28;3890;-50
2022/07/15 01:17:43;;;;;;;;;;;;;;;;;;1044666;28;1607;-51
2022/07/15 01:18:14;;;;;;;;;;;;;;;;;;1044792;28;3925;-54
2022/07/15 01:18:45;;;;;;;;;;;;;;;;;;1046417;28;1670;-48
2022/07/15 01:19:15;;;;;;;;;;;;;;;;;;1045550;28;5059;-53
2022/07/15 01:19:45;;;;;;;;;;;;;;;;;;1046499;28;1754;-51
2022/07/15 01:20:16;;;;;;;;;;;;;;;;;;1046651;28;3927;-55
2022/07/15 01:20:47;;;;;;;;;;;;;;;;;;1046218;28;1608;-55
2022/07/15 01:21:18;;;;;;;;;;;;;;;;;;1045724;28;4257;-51
2022/07/15 01:21:48;;;;;;;;;;;;;;;;;;1046561;28;1704;-52
2022/07/15 01:22:18;;;;;;;;;;;;;;;;;;1044490;28;3872;-52
2022/07/15 01:22:49;;;;;;;;;;;;;;;;;;1047332;28;1471;-53
2022/07/15 01:23:19;;;;;;;;;;;;;;;;;;1045117;28;4445;-52
2022/07/15 01:23:49;;;;;;;;;;;;;;;;;;1043186;28;1645;-52
2022/07/15 01:24:20;;;;;;;;;;;;;;;;;;1041504;28;3884;-52
2022/07/15 01:24:50;;;;;;;;;;;;;;;;;;1039155;28;1539;-53
2022/07/15 01:25:20;;;;;;;;;;;;;;;;;;1038056;28;4237;-55
2022/07/15 01:25:53;;;;;;;;;;;;;;;;;;1041918;28;1577;-54
2022/07/15 01:26:23;;;;;;;;;;;;;;;;;;1042179;28;5120;-52
2022/07/15 01:26:53;;;;;;;;;;;;;;;;;;1047504;28;1660;-51
2022/07/15 01:27:24;;;;;;;;;;;;;;;;;;1046128;28;3949;-53
2022/07/15 01:27:54;;;;;;;;;;;;;;;;;;1047764;28;2001;-52
2022/07/15 01:28:24;;;;;;;;;;;;;;;;;;1044987;28;3770;-50
2022/07/15 01:28:54;;;;;;;;;;;;;;;;;;1045143;28;1760;-49
2022/07/15 01:29:25;;;;;;;;;;;;;;;;;;1044805;28;4005;-53
2022/07/15 01:29:55;;;;;;;;;;;;;;;;;;1046023;28;1601;-50
2022/07/15 01:30:26;;;;;;;;;;;;;;;;;;1046310;28;3892;-54
2022/07/15 01:30:56;;;;;;;;;;;;;;;;;;1041091;28;1857;-52
2022/07/15 01:31:26;;;;;;;;;;;;;;;;;;1040478;28;3736;-52
2022/07/15 01:31:56;;;;;;;;;;;;;;;;;;1038361;28;1498;-54
2022/07/15 01:32:28;;;;;;;;;;;;;;;;;;1037295;28;4313;-50
2022/07/15 01:32:58;;;;;;;;;;;;;;;;;;1042688;28;4240;-51
2022/07/15 01:33:29;;;;;;;;;;;;;;;;;;1043249;28;1491;-54
2022/07/15 01:34:00;;;;;;;;;;;;;;;;;;1041167;28;4280;-55
2022/07/15 01:34:30;;;;;;;;;;;;;;;;;;1040516;28;1849;-49
2022/07/15 01:35:01;;;;;;;;;;;;;;;;;;1040342;28;4068;-51
2022/07/15 01:35:31;;;;;;;;;;;;;;;;;;1041780;28;1605;-53
2022/07/15 01:36:02;;;;;;;;;;;;;;;;;;1042358;28;4240;-51
2022/07/15 01:36:32;;;;;;;;;;;;;;;;;;1042192;28;1324;-53
2022/07/15 01:37:02;;;;;;;;;;;;;;;;;;1039955;28;3856;-52
2022/07/15 01:37:33;;;;;;;;;;;;;;;;;;1041167;28;1596;-52
2022/07/15 01:38:03;;;;;;;;;;;;;;;;;;1045710;28;3915;-47
2022/07/15 01:38:34;;;;;;;;;;;;;;;;;;1045247;28;2097;-49
2022/07/15 01:39:04;;;;;;;;;;;;;;;;;;1044046;28;3984;-49
2022/07/15 01:39:34;;;;;;;;;;;;;;;;;;1047073;28;1314;-51
2022/07/15 01:40:05;;;;;;;;;;;;;;;;;;1044319;28;3824;-47
2022/07/15 01:40:36;;;;;;;;;;;;;;;;;;1041225;28;1649;-53
2022/07/15 01:41:06;;;;;;;;;;;;;;;;;;1040233;28;4058;-49
2022/07/15 01:41:36;;;;;;;;;;;;;;;;;;1041021;28;1374;-50
2022/07/15 01:42:06;;;;;;;;;;;;;;;;;;1041817;28;4264;-54
2022/07/15 01:42:37;;;;;;;;;;;;;;;;;;1045249;28;1302;-51
2022/07/15 01:43:07;;;;;;;;;;;;;;;;;;1043639;28;4007;-54
2022/07/15 01:43:37;;;;;;;;;;;;;;;;;;1045642;28;1669;-52
2022/07/15 01:44:08;;;;;;;;;;;;;;;;;;1039780;28;3853;-51
2022/07/15 01:44:38;;;;;;;;;;;;;;;;;;1040223;28;1312;-52
2022/07/15 01:45:08;;;;;;;;;;;;;;;;;;1040865;28;3889;-50
2022/07/15 01:45:42;;;;;;;;;;;;;;;;;;1040222;28;1566;-51
2022/07/15 01:46:12;;;;;;;;;;;;;;;;;;1044812;28;4018;-53
2022/07/15 01:46:42;;;;;;;;;;;;;;;;;;1045463;28;1610;-52
2022/07/15 01:47:13;;;;;;;;;;;;;;;;;;1044525;28;4057;-53
2022/07/15 01:47:47;;;;;;;;;;;;;;;;;;1046419;28;1670;-49
2022/07/15 01:49:22;;;;;;;;;;;;;;;;;;1046141;28;4220;-50
2022/07/15 01:49:52;;;;;;;;;;;;;;;;;;1045813;28;1028;-54
2022/07/15 01:50:23;;;;;;;;;;;;;;;;;;1045315;28;4312;-49
2022/07/15 01:50:53;;;;;;;;;;;;;;;;;;1045176;28;1557;-55
2022/07/15 01:51:23;;;;;;;;;;;;;;;;;;1045775;28;3919;-53
2022/07/15 01:51:54;;;;;;;;;;;;;;;;;;1045482;28;2166;-53
2022/07/15 01:52:25;;;;;;;;;;;;;;;;;;1045931;28;4326;-53
2022/07/15 01:52:55;;;;;;;;;;;;;;;;;;1045710;28;1587;-49
2022/07/15 01:53:26;;;;;;;;;;;;;;;;;;1045349;28;3996;-52
2022/07/15 01:53:56;;;;;;;;;;;;;;;;;;1045343;28;1640;-54
2022/07/15 01:54:27;;;;;;;;;;;;;;;;;;1044268;28;4275;-56
2022/07/15 01:54:58;;;;;;;;;;;;;;;;;;1045258;28;4404;-53
2022/07/15 01:55:28;;;;;;;;;;;;;;;;;;1045063;28;1247;-51
2022/07/15 01:55:58;;;;;;;;;;;;;;;;;;1046145;28;4479;-53
2022/07/15 01:56:28;;;;;;;;;;;;;;;;;;1046627;28;1715;-51
2022/07/15 01:56:59;;;;;;;;;;;;;;;;;;1045712;28;3976;-54
2022/07/15 01:57:29;;;;;;;;;;;;;;;;;;1045554;28;1402;-53
2022/07/15 01:58:00;;;;;;;;;;;;;;;;;;1045108;28;3814;-49
2022/07/15 01:58:30;;;;;;;;;;;;;;;;;;1045303;28;1564;-52
2022/07/15 01:59:00;;;;;;;;;;;;;;;;;;1044590;28;4092;-53
2022/07/15 01:59:30;;;;;;;;;;;;;;;;;;1045197;28;1734;-52
2022/07/15 02:00:01;;;;;;;;;;;;;;;;;;1044466;28;3802;-53
2022/07/15 02:00:31;;;;;;;;;;;;;;;;;;1043180;28;1478;-50
2022/07/15 02:01:01;;;;;;;;;;;;;;;;;;1043235;28;3812;-54
2022/07/15 02:01:32;;;;;;;;;;;;;;;;;;1042690;28;1340;-54
2022/07/15 02:02:02;;;;;;;;;;;;;;;;;;1042572;28;4083;-55
2022/07/15 02:02:32;;;;;;;;;;;;;;;;;;1045951;28;1626;-53
2022/07/15 02:03:03;;;;;;;;;;;;;;;;;;1045559;28;4191;-50
2022/07/15 02:03:33;;;;;;;;;;;;;;;;;;1045214;28;1735;-49
2022/07/15 02:04:03;;;;;;;;;;;;;;;;;;1044322;28;3975;-49
2022/07/15 02:04:34;;;;;;;;;;;;;;;;;;1045871;28;1411;-47
2022/07/15 02:05:11;;;;;;;;;;;;;;;;;;1042130;28;3876;-51
2022/07/15 02:05:48;;;;;;;;;;;;;;;;;;1042122;28;1759;-52
2022/07/15 02:06:26;;;;;;;;;;;;;;;;;;1041233;28;4096;-52
2022/07/15 02:07:03;;;;;;;;;;;;;;;;;;1040678;28;3866;-55
2022/07/15 02:07:33;;;;;;;;;;;;;;;;;;1042752;28;1737;-49
2022/07/15 02:08:03;;;;;;;;;;;;;;;;;;1040845;28;4241;-53
2022/07/15 02:08:34;;;;;;;;;;;;;;;;;;1040885;28;1594;-49
2022/07/15 02:09:04;;;;;;;;;;;;;;;;;;1041151;28;3834;-52
2022/07/15 02:09:34;;;;;;;;;;;;;;;;;;1041818;28;1552;-48
2022/07/15 02:10:05;;;;;;;;;;;;;;;;;;1044895;28;3896;-54
2022/07/15 02:10:41;;;;;;;;;;;;;;;;;;1044547;28;1938;-50
2022/07/15 02:11:11;;;;;;;;;;;;;;;;;;1041734;28;4000;-54
2022/07/15 02:11:42;;;;;;;;;;;;;;;;;;1037885;28;1389;-50
2022/07/15 02:12:13;;;;;;;;;;;;;;;;;;1038048;28;4418;-51
2022/07/15 02:12:43;;;;;;;;;;;;;;;;;;1034049;28;1853;-50
2022/07/15 02:13:13;;;;;;;;;;;;;;;;;;1037317;28;3817;-51
2022/07/15 02:13:44;;;;;;;;;;;;;;;;;;1042887;28;1686;-49
2022/07/15 02:14:14;;;;;;;;;;;;;;;;;;1042228;28;4337;-52
2022/07/15 02:14:44;;;;;;;;;;;;;;;;;;1046893;28;1389;-50
2022/07/15 02:15:15;;;;;;;;;;;;;;;;;;1046242;28;4030;-50
2022/07/15 02:15:45;;;;;;;;;;;;;;;;;;1042548;28;1626;-53
2022/07/15 02:16:15;;;;;;;;;;;;;;;;;;1039968;28;3895;-48
2022/07/15 02:16:45;;;;;;;;;;;;;;;;;;1041085;28;1691;-48
2022/07/15 02:17:16;;;;;;;;;;;;;;;;;;1040739;28;3900;-53
2022/07/15 02:17:46;;;;;;;;;;;;;;;;;;1040987;28;1660;-48
2022/07/15 02:18:16;;;;;;;;;;;;;;;;;;1040116;28;3819;-57
2022/07/15 02:18:47;;;;;;;;;;;;;;;;;;1041705;28;1500;-51
2022/07/15 02:19:17;;;;;;;;;;;;;;;;;;1040829;28;3894;-52
2022/07/15 02:19:48;;;;;;;;;;;;;;;;;;1041325;28;1400;-53
2022/07/15 02:20:18;;;;;;;;;;;;;;;;;;1041612;28;3974;-52
2022/07/15 02:20:49;;;;;;;;;;;;;;;;;;1042024;28;1348;-53
2022/07/15 02:21:19;;;;;;;;;;;;;;;;;;1042222;28;3974;-52
2022/07/15 02:21:49;;;;;;;;;;;;;;;;;;1043016;28;1616;-47
2022/07/15 02:22:19;;;;;;;;;;;;;;;;;;1042781;28;3801;-52
2022/07/15 02:22:50;;;;;;;;;;;;;;;;;;1043134;28;1639;-50
2022/07/15 02:23:27;;;;;;;;;;;;;;;;;;1040803;28;3891;-53
2022/07/15 02:23:57;;;;;;;;;;;;;;;;;;1041377;28;3790;-50
2022/07/15 02:24:27;;;;;;;;;;;;;;;;;;1042929;28;1524;-53
2022/07/15 02:24:58;;;;;;;;;;;;;;;;;;1039624;28;4101;-52
2022/07/15 02:25:29;;;;;;;;;;;;;;;;;;1041435;28;1632;-51
2022/07/15 02:25:59;;;;;;;;;;;;;;;;;;1040547;28;4098;-52
2022/07/15 02:26:30;;;;;;;;;;;;;;;;;;1042072;28;1448;-54
2022/07/15 02:27:00;;;;;;;;;;;;;;;;;;1041236;28;4126;-47
2022/07/15 02:27:30;;;;;;;;;;;;;;;;;;1046982;28;1599;-49
2022/07/15 02:28:02;;;;;;;;;;;;;;;;;;1046535;28;4584;-50
2022/07/15 02:28:33;;;;;;;;;;;;;;;;;;1046810;28;1612;-50
2022/07/15 02:29:03;;;;;;;;;;;;;;;;;;1045735;28;4222;-50
2022/07/15 02:29:33;;;;;;;;;;;;;;;;;;1041392;28;1700;-51
2022/07/15 02:30:04;;;;;;;;;;;;;;;;;;1041376;28;4016;-55
2022/07/15 02:30:36;;;;;;;;;;;;;;;;;;1041521;28;1922;-54
2022/07/15 02:31:07;;;;;;;;;;;;;;;;;;1042486;28;3936;-52
2022/07/15 02:31:37;;;;;;;;;;;;;;;;;;1043324;28;1619;-54
2022/07/15 02:32:07;;;;;;;;;;;;;;;;;;1042905;28;4062;-55
2022/07/15 02:32:37;;;;;;;;;;;;;;;;;;1042942;28;1671;-53
2022/07/15 02:33:08;;;;;;;;;;;;;;;;;;1044822;28;4000;-53
2022/07/15 02:33:39;;;;;;;;;;;;;;;;;;1045141;28;2193;-52
2022/07/15 02:34:09;;;;;;;;;;;;;;;;;;1044575;28;3907;-56
2022/07/15 02:34:39;;;;;;;;;;;;;;;;;;1042758;28;1573;-54
2022/07/15 02:35:11;;;;;;;;;;;;;;;;;;1040734;28;3907;-55
2022/07/15 02:35:42;;;;;;;;;;;;;;;;;;1041207;28;1788;-51
2022/07/15 02:36:12;;;;;;;;;;;;;;;;;;1041065;28;3876;-50
2022/07/15 02:36:43;;;;;;;;;;;;;;;;;;1042687;28;1530;-51
2022/07/15 02:37:13;;;;;;;;;;;;;;;;;;1040604;28;4446;-52
2022/07/15 02:37:43;;;;;;;;;;;;;;;;;;1040307;28;1767;-52
2022/07/15 02:38:14;;;;;;;;;;;;;;;;;;1040265;28;3894;-54
2022/07/15 02:38:45;;;;;;;;;;;;;;;;;;1040917;28;1861;-50
2022/07/15 02:39:15;;;;;;;;;;;;;;;;;;1040690;28;4234;-49
2022/07/15 02:39:45;;;;;;;;;;;;;;;;;;1041507;28;1286;-50
2022/07/15 02:40:15;;;;;;;;;;;;;;;;;;1041315;28;3980;-53
2022/07/15 02:40:46;;;;;;;;;;;;;;;;;;1040837;28;1585;-52
2022/07/15 02:41:16;;;;;;;;;;;;;;;;;;1040724;28;3792;-53
2022/07/15 02:41:47;;;;;;;;;;;;;;;;;;1041750;28;1595;-50
2022/07/15 02:42:17;;;;;;;;;;;;;;;;;;1040391;28;3888;-52
2022/07/15 02:42:51;;;;;;;;;;;;;;;;;;1042050;28;1597;-52
2022/07/15 02:43:21;;;;;;;;;;;;;;;;;;1041878;28;3844;-51
2022/07/15 02:43:52;;;;;;;;;;;;;;;;;;1039742;28;1696;-51
2022/07/15 02:44:22;;;;;;;;;;;;;;;;;;1039975;28;4026;-53
2022/07/15 02:44:52;;;;;;;;;;;;;;;;;;1038944;28;1591;-56
2022/07/15 02:45:23;;;;;;;;;;;;;;;;;;1038078;28;4221;-50
2022/07/15 02:45:54;;;;;;;;;;;;;;;;;;1042667;28;1769;-52
2022/07/15 02:46:24;;;;;;;;;;;;;;;;;;1043964;28;3928;-50
2022/07/15 02:46:54;;;;;;;;;;;;;;;;;;1041053;28;1583;-51
2022/07/15 02:47:25;;;;;;;;;;;;;;;;;;1041394;28;4065;-48
2022/07/15 02:47:55;;;;;;;;;;;;;;;;;;1040536;28;1850;-50
2022/07/15 02:48:25;;;;;;;;;;;;;;;;;;1046623;28;3819;-50
2022/07/15 02:48:56;;;;;;;;;;;;;;;;;;1043002;28;1708;-50
2022/07/15 02:49:26;;;;;;;;;;;;;;;;;;1042603;28;3829;-51
2022/07/15 02:49:57;;;;;;;;;;;;;;;;;;1042323;28;2185;-49
2022/07/15 02:50:28;;;;;;;;;;;;;;;;;;1039962;28;3696;-54
2022/07/15 02:50:58;;;;;;;;;;;;;;;;;;1044598;28;3895;-50
2022/07/15 02:51:28;;;;;;;;;;;;;;;;;;1042525;28;1850;-54
2022/07/15 02:51:59;;;;;;;;;;;;;;;;;;1040794;28;3831;-51
2022/07/15 02:52:29;;;;;;;;;;;;;;;;;;1041333;28;1814;-55
2022/07/15 02:53:00;;;;;;;;;;;;;;;;;;1040619;28;3826;-52
2022/07/15 02:53:30;;;;;;;;;;;;;;;;;;1041195;28;1464;-52
2022/07/15 02:54:01;;;;;;;;;;;;;;;;;;1039981;28;4449;-50
2022/07/15 02:54:31;;;;;;;;;;;;;;;;;;1041475;28;1666;-49
2022/07/15 02:55:02;;;;;;;;;;;;;;;;;;1042414;28;4004;-51
2022/07/15 02:55:32;;;;;;;;;;;;;;;;;;1042267;28;1670;-50
2022/07/15 02:56:03;;;;;;;;;;;;;;;;;;1041895;28;4404;-55
2022/07/15 02:56:33;;;;;;;;;;;;;;;;;;1041901;28;1615;-50
2022/07/15 02:57:03;;;;;;;;;;;;;;;;;;1040462;28;4418;-51
2022/07/15 02:57:33;;;;;;;;;;;;;;;;;;1040639;28;1820;-51
2022/07/15 02:58:04;;;;;;;;;;;;;;;;;;1040384;28;4036;-53
2022/07/15 02:58:35;;;;;;;;;;;;;;;;;;1042462;28;1356;-53
2022/07/15 02:59:05;;;;;;;;;;;;;;;;;;1041718;28;3993;-52
2022/07/15 02:59:35;;;;;;;;;;;;;;;;;;1042377;28;1645;-52
2022/07/15 03:00:07;;;;;;;;;;;;;;;;;;1042288;28;3987;-51
2022/07/15 03:00:38;;;;;;;;;;;;;;;;;;1034567;28;1701;-50
2022/07/15 03:01:09;;;;;;;;;;;;;;;;;;1036120;28;3841;-50
2022/07/15 03:01:39;;;;;;;;;;;;;;;;;;1037322;28;1439;-49
2022/07/15 03:02:09;;;;;;;;;;;;;;;;;;1036991;28;4095;-53
2022/07/15 03:02:40;;;;;;;;;;;;;;;;;;1040769;28;1414;-49
2022/07/15 03:03:10;;;;;;;;;;;;;;;;;;1039710;28;4352;-50
2022/07/15 03:03:40;;;;;;;;;;;;;;;;;;1040468;28;1486;-50
2022/07/15 03:04:11;;;;;;;;;;;;;;;;;;1042273;28;4447;-50
2022/07/15 03:04:41;;;;;;;;;;;;;;;;;;1038335;28;1673;-51
2022/07/15 03:05:12;;;;;;;;;;;;;;;;;;1038210;28;3834;-52
2022/07/15 03:05:48;;;;;;;;;;;;;;;;;;1038205;28;1872;-53
2022/07/15 03:06:26;;;;;;;;;;;;;;;;;;1038786;28;3825;-48
2022/07/15 03:06:56;;;;;;;;;;;;;;;;;;1036184;28;1633;-52
2022/07/15 03:07:28;;;;;;;;;;;;;;;;;;1035683;28;3747;-54
2022/07/15 03:07:58;;;;;;;;;;;;;;;;;;1037726;28;3829;-53
2022/07/15 03:08:28;;;;;;;;;;;;;;;;;;1040718;28;1386;-53
2022/07/15 03:08:58;;;;;;;;;;;;;;;;;;1041095;28;3804;-56
2022/07/15 03:09:29;;;;;;;;;;;;;;;;;;1040701;28;1847;-52
2022/07/15 03:09:59;;;;;;;;;;;;;;;;;;1044424;28;3838;-52
2022/07/15 03:10:29;;;;;;;;;;;;;;;;;;1045343;28;1917;-51
2022/07/15 03:10:59;;;;;;;;;;;;;;;;;;1044740;28;4431;-51
2022/07/15 03:11:30;;;;;;;;;;;;;;;;;;1044357;28;1644;-51
2022/07/15 03:12:00;;;;;;;;;;;;;;;;;;1039848;28;4002;-50
2022/07/15 03:12:31;;;;;;;;;;;;;;;;;;1040760;28;1628;-49
2022/07/15 03:13:01;;;;;;;;;;;;;;;;;;1042353;28;4059;-48
2022/07/15 03:13:32;;;;;;;;;;;;;;;;;;1042135;28;1583;-53
2022/07/15 03:14:02;;;;;;;;;;;;;;;;;;1040194;28;4434;-52
2022/07/15 03:14:33;;;;;;;;;;;;;;;;;;1039795;28;1772;-53
2022/07/15 03:15:04;;;;;;;;;;;;;;;;;;1045273;28;3841;-50
2022/07/15 03:15:34;;;;;;;;;;;;;;;;;;1044358;28;1676;-51
2022/07/15 03:16:04;;;;;;;;;;;;;;;;;;1041072;28;3829;-54
2022/07/15 03:16:35;;;;;;;;;;;;;;;;;;1041837;28;1357;-53
2022/07/15 03:17:05;;;;;;;;;;;;;;;;;;1041313;28;4558;-51
2022/07/15 03:17:36;;;;;;;;;;;;;;;;;;1041614;28;1691;-53
2022/07/15 03:18:06;;;;;;;;;;;;;;;;;;1042203;28;4248;-52
2022/07/15 03:18:36;;;;;;;;;;;;;;;;;;1042333;28;2033;-52
2022/07/15 03:19:07;;;;;;;;;;;;;;;;;;1039408;28;4251;-48
2022/07/15 03:19:37;;;;;;;;;;;;;;;;;;1040274;28;1581;-50
2022/07/15 03:20:11;;;;;;;;;;;;;;;;;;1040216;28;3840;-50
2022/07/15 03:20:41;;;;;;;;;;;;;;;;;;1042588;28;1630;-56
2022/07/15 03:21:18;;;;;;;;;;;;;;;;;;1041786;28;3875;-54
2022/07/15 03:21:48;;;;;;;;;;;;;;;;;;1041782;28;1396;-54
2022/07/15 03:22:18;;;;;;;;;;;;;;;;;;1041904;28;3792;-51
2022/07/15 03:22:49;;;;;;;;;;;;;;;;;;1041098;28;1660;-50
2022/07/15 03:23:19;;;;;;;;;;;;;;;;;;1039617;28;3818;-49
2022/07/15 03:23:49;;;;;;;;;;;;;;;;;;1040788;28;1596;-49
2022/07/15 03:24:19;;;;;;;;;;;;;;;;;;1040674;28;3935;-53
2022/07/15 03:24:50;;;;;;;;;;;;;;;;;;1040806;28;1635;-53
2022/07/15 03:25:20;;;;;;;;;;;;;;;;;;1040453;28;3756;-51
2022/07/15 03:25:50;;;;;;;;;;;;;;;;;;1042583;28;2569;-49
2022/07/15 03:26:21;;;;;;;;;;;;;;;;;;1042606;28;4356;-50
2022/07/15 03:26:51;;;;;;;;;;;;;;;;;;1042964;28;2315;-52
2022/07/15 03:27:21;;;;;;;;;;;;;;;;;;1042991;28;4463;-50
2022/07/15 03:27:52;;;;;;;;;;;;;;;;;;1041207;28;1693;-53
2022/07/15 03:28:22;;;;;;;;;;;;;;;;;;1040738;28;4156;-53
2022/07/15 03:28:52;;;;;;;;;;;;;;;;;;1040645;28;1525;-52
2022/07/15 03:29:22;;;;;;;;;;;;;;;;;;1040091;28;4251;-51
2022/07/15 03:29:53;;;;;;;;;;;;;;;;;;1039884;28;1306;-51
2022/07/15 03:30:23;;;;;;;;;;;;;;;;;;1041509;28;3861;-51
2022/07/15 03:30:53;;;;;;;;;;;;;;;;;;1042572;28;1852;-53
2022/07/15 03:31:24;;;;;;;;;;;;;;;;;;1041646;28;4002;-51
2022/07/15 03:31:54;;;;;;;;;;;;;;;;;;1042543;28;1083;-51
2022/07/15 03:32:25;;;;;;;;;;;;;;;;;;1046185;28;4343;-52
2022/07/15 03:32:55;;;;;;;;;;;;;;;;;;1046684;28;1551;-51
2022/07/15 03:33:25;;;;;;;;;;;;;;;;;;1041802;28;3914;-50
2022/07/15 03:33:56;;;;;;;;;;;;;;;;;;1042450;28;1861;-52
2022/07/15 03:34:26;;;;;;;;;;;;;;;;;;1042112;28;4063;-56
2022/07/15 03:34:57;;;;;;;;;;;;;;;;;;1041753;28;1606;-48
2022/07/15 03:35:27;;;;;;;;;;;;;;;;;;1042035;28;3961;-53
2022/07/15 03:35:57;;;;;;;;;;;;;;;;;;1040648;28;4620;-51
2022/07/15 03:36:27;;;;;;;;;;;;;;;;;;1041078;28;1859;-51
2022/07/15 03:36:59;;;;;;;;;;;;;;;;;;1041721;28;3977;-51